KPDK/PDK METAR and TAF weather

Enter ICAO airport designator
Station Type Date Time Source
KPDK METAR 2022/12/04 03:53 UTC NOAA

KPDK 040353Z AUTO 33004KT 6SM BR CLR 12/12 A3030 RMK AO2 SLP258 T01220117


Station Type Date Time Source
KPDK Decoded METAR 2022/12/04 03:53 UTC NOAA

ATLANTA DE KALB-PEACHTREE, GA, United States (KPDK) 33-53N 084-18W 302M
Dec 03, 2022 - 10:53 PM EST / 2022.12.04 0353 UTC
Wind: from the NNW (330 degrees) at 5 MPH (4 KT):0
Visibility: 6 mile(s):0
Sky conditions: clear
Weather: mist
Temperature: 54.0 F (12.2 C)
Dew Point: 53.1 F (11.7 C)
Relative Humidity: 96%
Pressure (altimeter): 30.3 in. Hg (1026 hPa)
ob: KPDK 040353Z AUTO 33004KT 6SM BR CLR 12/12 A3030 RMK AO2 SLP258 T01220117
cycle: 4

Station Type Date Time Source
KPDK TAF 2022/12/04 04:45 UTC NOAA

TAF
AMD KPDK 040342Z 0404/0424 32003KT 6SM BR FEW010 BKN040
FM040600 32003KT 5SM BR BKN020
FM040900 00000KT 6SM BR BKN035
FM041200 00000KT 6SM BR SCT250

Example: see airport list